Time;durP1;ratioP1;P1;durP2;ratioP2;P2;SDS_P1;SDS_P2;PMS_P1;PMS_P2;Temp;Humidity;BMP_temperature;BMP_pressure;BME280_temperature;BME280_humidity;BME280_pressure;Samples;Min_cycle;Max_cycle;Signal;HPM_P1;HPM_P2
2022/04/30 00:00:31;;;;;;;7.95;5.35;;;;;;;15.15;47.19;101832.31;4930858;29;20563;-84
2022/04/30 00:02:59;;;;;;;8.48;5.60;;;;;;;15.10;47.44;101818.50;4940683;29;20504;-84
2022/04/30 00:05:32;;;;;;;5.22;4.53;;;;;;;14.87;46.36;101776.91;4920061;29;20070;-84
2022/04/30 00:08:03;;;;;;;5.75;4.57;;;;;;;15.12;47.13;101827.25;4919629;29;20456;-84
2022/04/30 00:10:31;;;;;;;7.50;5.20;;;;;;;14.51;47.81;101731.03;4919058;29;20445;-84
2022/04/30 00:12:58;;;;;;;6.70;4.80;;;;;;;14.99;48.25;101815.09;4919862;29;20048;-84
2022/04/30 00:15:25;;;;;;;5.60;4.50;;;;;;;14.59;47.71;101765.13;4920161;29;20052;-84
2022/04/30 00:17:53;;;;;;;10.65;5.13;;;;;;;14.64;48.30;101768.25;4919980;29;20054;-84
2022/04/30 00:20:20;;;;;;;7.68;5.05;;;;;;;15.00;48.20;101823.00;4920392;29;20233;-83
2022/04/30 00:22:46;;;;;;;5.40;4.30;;;;;;;14.97;48.76;101823.25;4936810;29;20059;-83
2022/04/30 00:25:14;;;;;;;7.20;5.00;;;;;;;14.77;48.60;101790.25;4919929;29;20413;-84
2022/04/30 00:27:41;;;;;;;5.55;4.78;;;;;;;14.89;49.07;101820.41;4920067;29;20052;-83
2022/04/30 00:30:08;;;;;;;4.90;4.40;;;;;;;14.87;49.04;101817.03;4936464;29;20052;-83
2022/04/30 00:32:36;;;;;;;5.13;4.40;;;;;;;14.60;49.22;101765.00;4935141;29;20055;-84
2022/04/30 00:35:03;;;;;;;7.07;4.53;;;;;;;14.62;49.07;101770.22;4919302;29;20047;-83
2022/04/30 00:37:30;;;;;;;5.25;4.72;;;;;;;14.69;48.95;101800.78;4919571;29;20054;-84
2022/04/30 00:39:56;;;;;;;6.55;4.68;;;;;;;14.52;49.23;101775.50;4919757;29;20071;-84
2022/04/30 00:42:23;;;;;;;5.43;4.55;;;;;;;14.14;49.87;101723.56;4919390;29;20047;-84
2022/04/30 00:44:50;;;;;;;8.55;5.10;;;;;;;14.63;49.26;101788.78;4936186;29;20062;-84
2022/04/30 00:47:19;;;;;;;6.93;4.65;;;;;;;14.16;49.33;101720.75;4918915;29;20111;-84
2022/04/30 00:49:46;;;;;;;5.75;5.03;;;;;;;14.47;50.02;101767.03;4919660;29;20318;-84
2022/04/30 00:52:15;;;;;;;9.00;4.40;;;;;;;14.62;49.29;101799.63;4919472;29;20058;-83
2022/04/30 00:54:47;;;;;;;6.47;4.88;;;;;;;14.55;49.26;101791.28;4915411;29;20063;-84
2022/04/30 00:57:19;;;;;;;5.60;4.30;;;;;;;14.58;46.26;101787.50;4915684;29;20503;-83
2022/04/30 00:59:47;;;;;;;5.28;4.20;;;;;;;14.64;47.50;101795.00;4927480;29;20058;-83
2022/04/30 01:02:13;;;;;;;5.70;4.90;;;;;;;14.69;47.53;101800.78;4945881;29;20520;-84
2022/04/30 01:04:40;;;;;;;13.18;4.85;;;;;;;14.62;46.20;101776.41;4918346;29;20434;-85
2022/04/30 01:07:09;;;;;;;5.68;4.22;;;;;;;14.58;45.45;101750.91;4918581;29;20059;-83
2022/04/30 01:09:42;;;;;;;5.78;4.30;;;;;;;14.84;44.72;101761.16;4918915;29;20078;-84
2022/04/30 01:12:10;;;;;;;4.20;3.80;;;;;;;15.08;44.33;101792.88;4918509;29;20062;-84
2022/04/30 01:14:41;;;;;;;6.43;4.85;;;;;;;14.98;43.82;101783.97;4918798;29;20079;-83
2022/04/30 01:17:10;;;;;;;4.72;4.28;;;;;;;15.08;43.76;101799.06;4917841;29;20059;-84
2022/04/30 01:19:39;;;;;;;4.90;4.40;;;;;;;14.95;45.41;101783.28;4917871;29;20142;-84
2022/04/30 01:22:20;;;;;;;4.55;3.83;;;;;;;14.83;45.38;101789.72;4918590;29;20063;-83
2022/04/30 01:24:48;;;;;;;4.78;4.20;;;;;;;14.38;46.05;101735.78;4918908;29;20575;-83
2022/04/30 01:27:17;;;;;;;4.47;3.60;;;;;;;14.56;46.14;101776.09;4935632;29;20054;-84
2022/04/30 01:29:44;;;;;;;4.93;4.00;;;;;;;14.43;46.05;101770.94;4935389;29;20418;-83
2022/04/30 01:37:42;;;;;;;4.43;4.03;;;;;;;14.29;46.72;101770.28;4934904;29;20056;-84
2022/04/30 01:40:11;;;;;;;5.88;4.13;;;;;;;14.10;46.04;101727.47;4918704;29;20054;-83
2022/04/30 01:42:43;;;;;;;5.35;4.03;;;;;;;14.27;46.12;101763.38;4918251;29;20093;-83
2022/04/30 01:45:10;;;;;;;5.90;3.83;;;;;;;14.27;46.85;101766.06;4918256;29;20043;-84
2022/04/30 01:47:39;;;;;;;4.40;3.97;;;;;;;13.85;47.27;101697.53;4917759;29;20059;-84
2022/04/30 01:50:07;;;;;;;5.75;4.28;;;;;;;13.86;47.61;101698.41;4918630;29;20063;-85
2022/04/30 01:52:34;;;;;;;7.13;4.45;;;;;;;14.05;47.01;101727.00;4935309;29;20062;-84
2022/04/30 01:55:01;;;;;;;6.88;4.10;;;;;;;14.25;46.85;101762.72;4919137;29;20047;-84
2022/04/30 01:57:33;;;;;;;4.65;4.20;;;;;;;13.53;45.81;101612.22;4936582;29;20051;-83
2022/04/30 02:00:14;;;;;;;6.40;4.18;;;;;;;14.32;45.37;101737.13;4930602;29;20055;-83
2022/04/30 02:02:45;;;;;;;4.75;4.13;;;;;;;14.18;46.46;101727.66;4923503;29;20055;-84
2022/04/30 02:05:15;;;;;;;6.23;4.70;;;;;;;14.13;46.49;101726.34;4929882;29;20138;-84
2022/04/30 02:08:03;;;;;;;5.82;3.95;;;;;;;14.25;45.60;101744.84;4912558;29;20062;-84
2022/04/30 02:10:31;;;;;;;3.88;3.58;;;;;;;14.49;45.02;101754.38;4912233;29;20132;-84
2022/04/30 02:12:58;;;;;;;4.75;3.50;;;;;;;14.53;44.45;101743.31;4912536;29;20067;-84
2022/04/30 02:15:28;;;;;;;5.93;4.53;;;;;;;14.11;44.06;101670.41;4929193;29;20458;-84
2022/04/30 02:17:56;;;;;;;5.80;3.95;;;;;;;14.50;45.97;101745.38;4912626;29;20125;-84
2022/04/30 02:20:33;;;;;;;7.22;4.20;;;;;;;14.38;46.74;101741.94;4929709;29;20054;-84
2022/04/30 02:23:02;;;;;;;5.30;4.38;;;;;;;14.32;46.25;101745.13;4912754;29;20403;-83
2022/04/30 02:25:30;;;;;;;4.97;4.50;;;;;;;14.11;46.65;101740.69;4929696;29;20234;-83
2022/04/30 02:27:59;;;;;;;4.72;3.75;;;;;;;14.14;47.11;101755.59;4912252;29;20138;-84
2022/04/30 02:30:29;;;;;;;4.60;3.85;;;;;;;14.06;47.24;101758.09;4912156;29;20055;-83
2022/04/30 02:33:01;;;;;;;4.85;4.15;;;;;;;14.05;48.24;101751.91;4912276;29;20071;-83
2022/04/30 02:35:30;;;;;;;5.20;3.67;;;;;;;13.97;48.21;101741.03;4912433;29;20057;-84
2022/04/30 02:37:59;;;;;;;7.00;4.00;;;;;;;13.95;48.43;101747.47;4929177;29;20052;-84
2022/04/30 02:40:28;;;;;;;9.23;4.35;;;;;;;13.99;47.81;101749.75;4912240;29;20071;-84
2022/04/30 02:43:00;;;;;;;8.57;4.25;;;;;;;13.94;48.41;101743.97;4912381;29;20062;-84
2022/04/30 02:45:27;;;;;;;5.57;4.03;;;;;;;13.21;48.39;101630.94;4913179;29;20051;-84
2022/04/30 02:47:56;;;;;;;5.70;4.20;;;;;;;13.78;48.33;101739.06;4912156;29;20057;-84
2022/04/30 02:50:24;;;;;;;5.60;4.00;;;;;;;13.25;49.88;101656.34;4912380;29;20051;-84
2022/04/30 02:52:54;;;;;;;6.07;3.83;;;;;;;13.43;48.78;101680.69;4908819;29;20140;-83
2022/04/30 02:55:24;;;;;;;5.15;3.83;;;;;;;13.68;48.65;101725.66;4910035;29;20062;-84
2022/04/30 03:00:48;;;;;;;5.40;4.10;;;;;;;13.73;49.88;101735.09;4936376;29;20493;-84
2022/04/30 03:03:15;;;;;;;4.97;4.35;;;;;;;13.72;50.00;101739.59;4929306;29;20115;-84
2022/04/30 03:05:44;;;;;;;6.40;4.40;;;;;;;13.40;50.17;101686.28;4924707;29;20284;-84
2022/04/30 03:08:13;;;;;;;6.88;4.60;;;;;;;13.65;49.54;101738.41;4949165;28;20032;-84
2022/04/30 03:10:44;;;;;;;12.63;4.97;;;;;;;13.70;48.54;101730.88;4931546;28;20525;-84
2022/04/30 03:13:17;;;;;;;5.10;4.60;;;;;;;13.60;48.55;101714.78;4913217;29;20055;-84
2022/04/30 03:15:45;;;;;;;4.85;4.40;;;;;;;13.58;48.49;101716.72;4912280;29;20052;-84
2022/04/30 03:23:47;;;;;;;8.20;5.05;;;;;;;13.21;48.86;101669.09;4933089;29;20094;-84
2022/04/30 03:26:15;;;;;;;5.03;4.53;;;;;;;13.41;48.74;101710.13;4915876;29;20214;-83
2022/04/30 03:28:42;;;;;;;6.10;4.22;;;;;;;13.37;48.64;101706.03;4932245;29;20224;-84
2022/04/30 03:31:10;;;;;;;5.25;4.75;;;;;;;13.37;48.39;101703.34;4915545;29;20051;-84
2022/04/30 03:33:38;;;;;;;4.68;4.15;;;;;;;13.46;49.06;101734.59;4932230;29;20058;-84
2022/04/30 03:36:06;;;;;;;7.38;4.57;;;;;;;13.33;49.36;101714.44;4915597;29;20051;-84
2022/04/30 03:38:32;;;;;;;5.72;4.65;;;;;;;13.28;49.29;101712.16;4915324;29;20063;-84
2022/04/30 03:41:00;;;;;;;6.43;4.68;;;;;;;13.08;48.78;101691.56;4915124;29;20391;-84
2022/04/30 03:43:27;;;;;;;7.38;4.75;;;;;;;13.22;49.10;101721.44;4931952;29;20506;-84
2022/04/30 03:45:53;;;;;;;6.35;5.07;;;;;;;12.85;49.77;101672.97;4914839;29;20052;-83
2022/04/30 03:48:20;;;;;;;7.43;5.32;;;;;;;12.63;50.08;101641.91;4915213;29;20477;-84
2022/04/30 03:50:47;;;;;;;5.55;4.70;;;;;;;12.83;49.98;101680.25;4931857;29;20055;-84
2022/04/30 03:53:14;;;;;;;6.82;4.88;;;;;;;12.60;50.10;101636.84;4931694;29;20515;-84
2022/04/30 03:55:40;;;;;;;8.05;5.10;;;;;;;13.15;49.92;101724.75;4914882;29;20052;-83
2022/04/30 03:58:07;;;;;;;11.50;5.15;;;;;;;13.01;50.55;101701.88;4915174;29;20063;-83
2022/04/30 04:00:34;;;;;;;7.20;5.07;;;;;;;13.04;50.54;101718.47;4927977;29;20051;-84
2022/04/30 04:03:01;;;;;;;7.88;5.10;;;;;;;13.00;50.49;101733.03;4951974;29;20071;-83
2022/04/30 04:05:28;;;;;;;9.30;4.80;;;;;;;12.81;50.93;101700.84;4934540;29;20047;-83
2022/04/30 04:07:59;;;;;;;8.60;5.32;;;;;;;12.96;50.73;101723.59;4950232;29;20051;-83
2022/04/30 04:10:26;;;;;;;4.88;4.25;;;;;;;12.82;51.48;101697.22;4934294;29;20322;-83
2022/04/30 04:17:37;;;;;;;7.95;4.45;;;;;;;12.78;50.74;101690.44;4934073;29;20062;-83
2022/04/30 04:18:25;;;;;;;6.13;4.75;;;;;;;12.97;51.80;101722.63;4950238;29;20071;-83
2022/04/30 04:20:51;;;;;;;5.40;4.70;;;;;;;12.27;51.16;101605.78;4933639;29;20047;-84
2022/04/30 04:23:18;;;;;;;6.80;4.75;;;;;;;12.67;51.25;101682.44;4950496;29;20051;-84
2022/04/30 04:26:00;;;;;;;6.28;5.10;;;;;;;12.93;51.68;101725.66;4948926;29;20395;-82
2022/04/30 04:28:27;;;;;;;5.38;4.70;;;;;;;12.69;51.93;101692.00;4914307;29;20054;-83
2022/04/30 04:30:56;;;;;;;7.55;4.97;;;;;;;12.73;51.83;101692.63;4914647;29;20060;-83
2022/04/30 04:33:23;;;;;;;6.80;4.75;;;;;;;12.88;51.86;101719.84;4913865;29;20151;-82
2022/04/30 04:35:49;;;;;;;8.95;5.13;;;;;;;12.96;51.89;101720.94;4914395;29;20142;-83
2022/04/30 04:38:16;;;;;;;8.00;4.75;;;;;;;12.37;52.24;101625.34;4914240;29;20298;-83
2022/04/30 04:40:43;;;;;;;7.50;4.93;;;;;;;12.83;51.92;101693.56;4931161;29;20083;-84
2022/04/30 04:43:10;;;;;;;5.97;5.15;;;;;;;13.03;51.77;101721.25;4931194;29;20081;-83
2022/04/30 04:45:39;;;;;;;7.32;5.43;;;;;;;13.09;52.02;101722.59;4914602;29;20055;-84
2022/04/30 04:48:08;;;;;;;8.18;5.07;;;;;;;12.99;52.65;101694.03;4914084;29;20189;-83
2022/04/30 04:50:35;;;;;;;9.27;5.20;;;;;;;13.11;51.54;101724.16;4913937;29;20167;-82
2022/04/30 04:53:02;;;;;;;6.95;4.93;;;;;;;13.02;52.09;101715.09;4931559;29;20055;-84
2022/04/30 04:55:28;;;;;;;6.35;4.82;;;;;;;13.16;52.10;101721.13;4914930;29;20063;-84
2022/04/30 04:58:04;;;;;;;5.70;5.00;;;;;;;12.85;52.25;101680.97;4932746;29;20048;-83
2022/04/30 05:00:33;;;;;;;7.80;5.10;;;;;;;13.08;51.71;101699.56;4945325;29;20058;-83
2022/04/30 05:03:00;;;;;;;12.18;6.20;;;;;;;13.17;51.78;101696.16;4934214;29;20148;-84
2022/04/30 05:05:27;;;;;;;8.48;5.43;;;;;;;13.16;52.30;101673.13;4949564;29;20137;-84
2022/04/30 05:07:54;;;;;;;10.20;5.03;;;;;;;13.26;52.83;101706.06;4933368;29;20066;-84
2022/04/30 05:10:20;;;;;;;6.30;4.97;;;;;;;12.84;52.72;101634.00;4932545;29;20055;-84
2022/04/30 05:12:47;;;;;;;10.13;5.30;;;;;;;13.41;52.38;101726.13;4949711;29;20110;-84
2022/04/30 05:15:14;;;;;;;8.57;5.85;;;;;;;13.02;52.95;101656.44;4930790;29;20047;-84
2022/04/30 05:17:41;;;;;;;11.80;5.40;;;;;;;13.46;52.61;101718.59;4931030;29;20059;-83
2022/04/30 05:20:08;;;;;;;8.27;5.20;;;;;;;13.08;52.21;101660.41;4946700;29;20063;-84
2022/04/30 05:22:55;;;;;;;6.10;4.63;;;;;;;13.39;51.57;101697.91;4948500;29;20091;-82
2022/04/30 05:25:22;;;;;;;6.72;5.75;;;;;;;13.61;51.95;101729.81;4948280;29;20466;-84
2022/04/30 05:27:48;;;;;;;7.25;5.05;;;;;;;13.53;51.72;101696.75;4914872;29;20365;-84
2022/04/30 05:30:18;;;;;;;7.03;4.82;;;;;;;13.81;51.19;101733.47;4912201;29;20148;-83
2022/04/30 05:32:45;;;;;;;7.68;5.53;;;;;;;13.88;51.27;101740.00;4927829;29;20059;-83
2022/04/30 05:35:12;;;;;;;11.40;5.32;;;;;;;13.96;51.71;101738.50;4912049;29;20281;-84
2022/04/30 05:37:40;;;;;;;5.43;4.88;;;;;;;13.88;50.46;101701.75;4912244;29;20070;-84
2022/04/30 05:40:07;;;;;;;9.32;4.55;;;;;;;13.36;49.52;101616.34;4912391;29;20114;-83
2022/04/30 05:42:34;;;;;;;4.70;4.30;;;;;;;14.15;49.16;101730.59;4912026;29;20079;-83
2022/04/30 05:45:02;;;;;;;4.13;3.72;;;;;;;14.27;49.18;101734.88;4911176;29;20064;-83
2022/04/30 05:47:28;;;;;;;5.80;4.30;;;;;;;14.07;48.66;101680.50;4940752;29;20055;-83
2022/04/30 05:49:55;;;;;;;4.25;3.83;;;;;;;14.22;46.98;101682.81;4930898;29;20281;-83
2022/04/30 05:52:22;;;;;;;4.20;3.75;;;;;;;14.66;46.91;101732.41;4930914;29;20063;-83
2022/04/30 05:54:49;;;;;;;4.25;3.53;;;;;;;14.78;46.32;101730.44;4911820;29;20343;-84
2022/04/30 05:57:16;;;;;;;5.90;3.58;;;;;;;14.41;46.18;101671.38;4928546;29;20505;-85
2022/04/30 05:59:43;;;;;;;4.60;4.15;;;;;;;14.67;44.72;101677.13;4917077;29;20086;-82
2022/04/30 06:02:09;;;;;;;4.60;4.20;;;;;;;14.53;43.50;101624.88;4927111;29;20102;-83
2022/04/30 06:04:36;;;;;;;4.30;3.78;;;;;;;15.23;44.61;101726.47;4928027;29;20048;-83
2022/04/30 06:07:03;;;;;;;6.10;3.85;;;;;;;15.30;44.65;101727.59;4928463;29;20059;-83
2022/04/30 06:09:30;;;;;;;4.80;3.63;;;;;;;15.32;45.53;101731.81;4930358;29;20092;-84
2022/04/30 06:11:56;;;;;;;4.05;3.75;;;;;;;15.25;46.22;101703.09;4930374;29;20051;-84
2022/04/30 06:14:23;;;;;;;4.68;3.85;;;;;;;15.40;45.56;101728.44;4931843;29;20057;-83
2022/04/30 06:16:50;;;;;;;4.50;4.10;;;;;;;15.47;45.67;101721.53;4929045;29;20055;-83
2022/04/30 06:19:17;;;;;;;4.82;4.10;;;;;;;15.50;44.62;101702.53;4934935;29;20138;-84
2022/04/30 06:21:45;;;;;;;5.75;4.10;;;;;;;15.57;44.01;101690.25;4930159;29;20064;-84
2022/04/30 06:24:12;;;;;;;9.68;4.40;;;;;;;15.91;42.42;101716.59;4920489;29;20232;-84
2022/04/30 06:26:39;;;;;;;5.90;4.13;;;;;;;15.98;42.51;101712.34;4917824;29;20077;-83
2022/04/30 06:29:06;;;;;;;4.95;3.95;;;;;;;15.17;42.20;101572.75;4909260;29;20454;-84
2022/04/30 06:31:33;;;;;;;5.30;4.47;;;;;;;15.15;43.45;101558.66;4924484;29;20059;-84
2022/04/30 06:33:59;;;;;;;5.78;4.25;;;;;;;16.12;42.61;101718.25;4909007;29;20070;-84
2022/04/30 06:36:26;;;;;;;8.40;4.22;;;;;;;16.08;42.72;101679.34;4910262;29;20052;-84
2022/04/30 06:38:54;;;;;;;6.65;4.03;;;;;;;16.29;42.75;101711.25;4924344;29;20252;-83
2022/04/30 06:41:23;;;;;;;6.57;3.78;;;;;;;16.03;42.15;101664.53;4908562;29;20553;-84
2022/04/30 06:43:50;;;;;;;6.18;4.07;;;;;;;16.39;40.60;101694.16;4908779;29;20052;-83
2022/04/30 06:46:18;;;;;;;4.18;3.78;;;;;;;16.57;40.89;101717.50;4909009;29;20413;-84
2022/04/30 06:48:45;;;;;;;3.78;3.45;;;;;;;16.66;40.35;101721.97;4907862;29;20056;-84
2022/04/30 06:51:12;;;;;;;3.80;3.42;;;;;;;16.71;40.38;101719.69;4909092;29;20514;-83
2022/04/30 06:59:12;;;;;;;4.68;3.58;;;;;;;16.64;39.55;101673.00;4917808;28;20056;-84
2022/04/30 07:01:44;;;;;;;4.40;3.67;;;;;;;16.92;39.88;101710.53;4950671;28;20177;-84
2022/04/30 07:04:11;;;;;;;3.88;3.47;;;;;;;16.98;39.47;101704.59;4968403;28;20062;-83
2022/04/30 07:06:38;;;;;;;4.00;3.70;;;;;;;17.08;39.43;101710.72;4931751;29;20062;-84
2022/04/30 07:09:07;;;;;;;3.70;3.30;;;;;;;17.07;39.82;101709.06;4947863;29;20052;-84
2022/04/30 07:11:34;;;;;;;4.95;3.28;;;;;;;16.85;39.78;101660.22;4930989;29;20066;-84
2022/04/30 07:14:01;;;;;;;8.55;4.07;;;;;;;17.12;38.58;101704.06;4931492;29;20055;-84
2022/04/30 07:16:28;;;;;;;5.65;3.30;;;;;;;16.99;39.31;101679.44;4930526;29;20130;-84
2022/04/30 07:18:55;;;;;;;4.50;2.92;;;;;;;17.19;39.03;101702.47;4931005;29;20122;-84
2022/04/30 07:21:23;;;;;;;4.72;3.75;;;;;;;17.18;39.42;101698.06;4930794;29;20110;-84
2022/04/30 07:23:51;;;;;;;3.70;3.38;;;;;;;16.82;39.27;101627.47;4947815;29;20047;-84
2022/04/30 07:26:18;;;;;;;6.50;3.85;;;;;;;17.23;39.73;101695.81;4926014;29;20094;-84
2022/04/30 07:28:46;;;;;;;4.13;3.70;;;;;;;17.09;38.49;101656.94;4911762;29;20047;-83
2022/04/30 07:31:14;;;;;;;9.68;3.65;;;;;;;17.24;38.62;101662.59;4911574;29;20052;-83
2022/04/30 07:33:41;;;;;;;8.43;3.80;;;;;;;17.04;38.47;101618.16;4911480;29;20074;-84
2022/04/30 07:36:07;;;;;;;4.03;3.28;;;;;;;17.34;38.56;101667.88;4928808;29;20059;-83
2022/04/30 07:38:35;;;;;;;4.03;3.28;;;;;;;17.49;38.89;101698.53;4911430;29;20123;-81
2022/04/30 07:41:02;;;;;;;4.60;3.40;;;;;;;17.51;38.70;101693.03;4930068;29;20062;-82
2022/04/30 07:43:29;;;;;;;6.70;3.67;;;;;;;17.58;37.63;101688.72;4929926;29;20164;-84
2022/04/30 07:45:56;;;;;;;6.10;3.80;;;;;;;17.02;37.90;101593.31;4911609;29;20430;-84
2022/04/30 07:48:22;;;;;;;5.53;4.13;;;;;;;17.62;37.33;101691.91;4928283;29;20079;-84
2022/04/30 07:50:49;;;;;;;5.75;4.55;;;;;;;17.53;36.43;101650.75;4911165;29;20517;-84
2022/04/30 07:53:16;;;;;;;4.60;4.05;;;;;;;17.62;37.07;101665.06;4908306;29;20494;-84
2022/04/30 07:55:43;;;;;;;6.90;4.30;;;;;;;17.70;36.40;101679.41;4908319;29;20060;-84
2022/04/30 07:58:10;;;;;;;6.03;4.93;;;;;;;17.55;36.32;101659.50;4909264;29;20048;-82
2022/04/30 08:00:38;;;;;;;4.65;4.20;;;;;;;17.71;36.05;101662.28;4918084;29;20083;-85
2022/04/30 08:03:05;;;;;;;4.95;4.38;;;;;;;17.52;36.39;101622.22;4931515;29;20091;-84
2022/04/30 08:05:34;;;;;;;6.10;4.38;;;;;;;17.87;36.57;101684.94;4931528;29;20504;-77
2022/04/30 08:08:00;;;;;;;7.75;4.22;;;;;;;17.97;36.58;101691.03;4916968;29;20055;-83
2022/04/30 08:10:27;;;;;;;5.20;4.35;;;;;;;17.38;36.55;101594.13;4915928;29;20059;-83
2022/04/30 08:12:55;;;;;;;7.00;4.63;;;;;;;17.84;36.63;101647.63;4915052;29;20055;-82
2022/04/30 08:15:25;;;;;;;6.28;4.50;;;;;;;18.10;36.86;101686.06;4913624;29;20564;-84
2022/04/30 08:17:52;;;;;;;5.55;4.43;;;;;;;18.24;36.97;101691.84;4930502;29;20051;-83
2022/04/30 08:20:20;;;;;;;6.72;3.85;;;;;;;17.85;36.26;101623.28;4913593;29;20098;-84
2022/04/30 08:22:47;;;;;;;6.40;4.70;;;;;;;18.32;36.02;101691.88;4913576;29;20490;-83
2022/04/30 08:25:14;;;;;;;4.60;3.83;;;;;;;17.95;36.46;101628.56;4914141;29;20047;-84
2022/04/30 08:27:41;;;;;;;6.75;4.35;;;;;;;18.48;36.14;101693.81;4931252;29;20043;-83
2022/04/30 08:30:10;;;;;;;4.43;3.97;;;;;;;18.08;36.35;101623.59;4914363;29;20411;-85
2022/04/30 08:32:37;;;;;;;7.40;5.13;;;;;;;18.27;36.57;101643.16;4914310;29;20387;-84
2022/04/30 08:35:04;;;;;;;7.10;4.95;;;;;;;18.48;36.06;101667.75;4931441;29;20055;-82
2022/04/30 08:37:51;;;;;;;6.78;4.22;;;;;;;18.10;36.91;101600.06;4917792;29;20639;-83
2022/04/30 08:40:19;;;;;;;6.30;4.63;;;;;;;18.96;37.07;101687.78;4931789;29;20047;-85
2022/04/30 08:42:46;;;;;;;5.05;4.20;;;;;;;18.14;36.74;101553.06;4914540;29;20056;-85
2022/04/30 08:45:13;;;;;;;5.07;4.20;;;;;;;18.18;36.34;101542.00;4929511;29;20070;-85
2022/04/30 08:47:41;;;;;;;5.28;4.18;;;;;;;19.16;36.45;101687.47;4930646;29;20058;-84
2022/04/30 08:50:13;;;;;;;7.38;4.10;;;;;;;18.60;35.99;101597.56;4913087;29;20056;-84
2022/04/30 08:52:40;;;;;;;5.70;3.88;;;;;;;19.26;35.33;101690.84;4913678;29;20047;-85
2022/04/30 08:55:09;;;;;;;4.05;3.40;;;;;;;19.29;35.91;101679.72;4930885;29;20111;-85
2022/04/30 08:57:36;;;;;;;4.45;4.05;;;;;;;19.35;35.96;101679.06;4929311;29;20273;-84
2022/04/30 09:00:05;;;;;;;4.10;3.35;;;;;;;19.39;35.70;101655.31;4922217;29;20062;-84
2022/04/30 09:02:31;;;;;;;4.22;3.42;;;;;;;19.54;35.82;101660.88;4931717;29;20059;-84
2022/04/30 09:04:58;;;;;;;8.50;3.72;;;;;;;19.71;35.50;101681.44;4932723;29;20043;-84
2022/04/30 09:07:26;;;;;;;5.13;3.60;;;;;;;19.66;35.66;101648.75;4932830;29;20047;-85
2022/04/30 09:10:02;;;;;;;3.83;3.38;;;;;;;19.88;35.53;101665.22;4931200;29;20051;-84
2022/04/30 09:12:31;;;;;;;3.92;3.42;;;;;;;19.90;34.73;101636.25;4931566;29;20055;-82
2022/04/30 09:14:59;;;;;;;5.10;3.78;;;;;;;20.16;34.14;101647.63;4950202;29;20043;-85
2022/04/30 09:17:27;;;;;;;3.97;3.58;;;;;;;20.38;33.75;101646.03;4931938;29;20061;-84
2022/04/30 09:20:04;;;;;;;3.78;3.47;;;;;;;20.49;33.57;101652.91;4930941;29;20056;-85
2022/04/30 09:22:35;;;;;;;10.27;3.83;;;;;;;20.49;33.13;101658.31;4949387;29;20058;-83
2022/04/30 09:25:04;;;;;;;5.80;2.88;;;;;;;20.55;33.25;101664.84;4932449;29;20054;-85
2022/04/30 09:27:52;;;;;;;4.10;3.20;;;;;;;20.67;31.99;101650.78;4918053;29;20083;-84
2022/04/30 09:30:24;;;;;;;3.97;3.28;;;;;;;20.55;32.19;101630.63;4913037;29;20462;-84
2022/04/30 09:33:00;;;;;;;3.72;3.38;;;;;;;20.83;32.12;101654.44;4913268;29;20107;-84
2022/04/30 09:38:14;;;;;;;5.95;3.40;;;;;;;20.96;31.92;101622.28;4930147;29;20055;-84
2022/04/30 09:40:51;;;;;;;3.72;3.33;;;;;;;20.92;32.23;101604.75;4913002;29;20074;-84
2022/04/30 09:43:18;;;;;;;7.15;3.60;;;;;;;20.74;32.36;101579.94;4912906;29;20051;-83
2022/04/30 09:45:46;;;;;;;4.72;2.97;;;;;;;21.13;33.15;101634.63;4913242;29;20094;-84
2022/04/30 09:54:00;;;;;;;3.88;2.97;;;;;;;21.61;30.75;101607.41;4929936;29;20512;-84
2022/04/30 09:56:35;;;;;;;6.10;2.83;;;;;;;21.79;30.43;101617.00;4913545;29;20052;-85
2022/04/30 09:59:10;;;;;;;5.32;2.60;;;;;;;22.02;30.41;101622.34;4913116;29;20107;-84
2022/04/30 10:01:40;;;;;;;5.65;2.80;;;;;;;21.38;30.65;101496.66;4946383;29;20051;-83
2022/04/30 10:04:13;;;;;;;4.22;3.35;;;;;;;21.85;30.42;101546.81;4929472;29;20135;-84
2022/04/30 10:06:42;;;;;;;3.97;2.95;;;;;;;22.17;30.32;101593.41;4947927;29;20129;-84
2022/04/30 10:09:44;;;;;;;4.53;3.10;;;;;;;22.48;30.61;101617.53;4948950;29;20055;-84
2022/04/30 10:12:37;;;;;;;3.42;3.00;;;;;;;22.45;30.90;101603.53;4928577;29;20059;-84
2022/04/30 10:15:21;;;;;;;;;;;;;;;22.60;30.61;101609.75;4932271;29;20051;-84
2022/04/30 10:17:54;;;;;;;2.72;2.47;;;;;;;22.50;29.92;101609.19;4933538;29;19929;-84
2022/04/30 10:20:33;;;;;;;3.92;2.90;;;;;;;22.32;30.26;101548.25;4932388;29;20508;-83
2022/04/30 10:23:01;;;;;;;5.40;3.20;;;;;;;22.81;30.34;101601.63;4947828;29;20474;-84
2022/04/30 10:25:37;;;;;;;3.05;2.80;;;;;;;22.90;30.06;101577.16;4931686;29;20091;-83
2022/04/30 10:28:18;;;;;;;4.03;2.50;;;;;;;23.04;29.01;101589.81;4917075;29;20147;-84
2022/04/30 10:30:57;;;;;;;2.95;2.35;;;;;;;22.93;28.54;101576.75;4912419;29;20490;-87
2022/04/30 10:33:25;;;;;;;2.90;2.60;;;;;;;23.37;28.80;101586.53;4930353;29;20560;-84
2022/04/30 10:36:09;;;;;;;3.35;3.05;;;;;;;22.88;28.55;101488.00;4913138;29;20194;-84
2022/04/30 10:38:37;;;;;;;3.70;3.40;;;;;;;23.70;28.24;101584.03;4915011;29;20074;-82
2022/04/30 10:41:10;;;;;;;3.22;2.92;;;;;;;23.18;28.57;101499.50;4913463;29;20055;-83
2022/04/30 10:43:40;;;;;;;3.53;2.55;;;;;;;23.77;27.91;101578.69;4916063;29;20498;-83
2022/04/30 10:46:14;;;;;;;3.80;3.13;;;;;;;23.44;27.83;101552.19;4914709;29;20063;-83
2022/04/30 10:48:41;;;;;;;3.72;2.85;;;;;;;23.53;27.84;101551.00;4911210;29;20130;-83
2022/04/30 10:51:09;;;;;;;3.22;2.92;;;;;;;23.81;28.04;101559.13;4911718;29;20055;-83
2022/04/30 10:53:44;;;;;;;3.15;2.90;;;;;;;23.92;28.46;101563.13;4908732;29;20071;-84
2022/04/30 10:56:13;;;;;;;4.28;3.13;;;;;;;23.92;28.23;101560.41;4908572;29;20059;-84
2022/04/30 10:58:41;;;;;;;3.25;2.95;;;;;;;23.80;28.51;101526.78;4908538;29;20067;-84
2022/04/30 11:01:12;;;;;;;3.40;3.10;;;;;;;24.15;28.33;101500.41;4925721;29;20053;-84
2022/04/30 11:03:44;;;;;;;5.50;3.58;;;;;;;24.47;27.87;101555.84;4928789;29;20063;-83
2022/04/30 11:06:18;;;;;;;3.75;3.45;;;;;;;24.32;28.31;101546.97;4931077;29;20052;-84
2022/04/30 11:09:07;;;;;;;4.53;3.42;;;;;;;24.38;27.71;101520.94;4929700;29;20122;-84
2022/04/30 11:11:36;;;;;;;3.83;3.42;;;;;;;24.41;28.11;101526.75;4916606;29;20086;-82
2022/04/30 11:14:08;;;;;;;2.90;2.58;;;;;;;24.80;28.19;101546.91;4942753;29;20111;-83
2022/04/30 11:16:37;;;;;;;4.32;3.50;;;;;;;24.97;28.03;101530.19;4933141;28;20031;-82
2022/04/30 11:19:10;;;;;;;5.75;3.22;;;;;;;24.85;27.64;101533.53;4936495;29;20044;-83
2022/04/30 11:21:38;;;;;;;4.30;3.90;;;;;;;24.39;28.04;101490.84;4936403;29;20119;-83
2022/04/30 11:24:06;;;;;;;4.45;3.53;;;;;;;24.72;28.29;101523.50;4949378;29;20204;-83
2022/04/30 11:26:41;;;;;;;3.50;3.03;;;;;;;24.67;28.35;101519.75;4938972;29;20059;-82
2022/04/30 11:29:12;;;;;;;5.18;3.38;;;;;;;24.90;28.34;101522.91;4911891;29;20241;-83
2022/04/30 11:31:41;;;;;;;4.18;3.70;;;;;;;24.88;27.84;101495.13;4911973;29;20048;-83
2022/04/30 11:34:08;;;;;;;4.60;3.60;;;;;;;25.19;27.52;101519.97;4911687;29;20048;-85
2022/04/30 11:36:53;;;;;;;5.18;4.68;;;;;;;25.16;27.35;101499.47;4911880;29;20048;-84
2022/04/30 11:39:21;;;;;;;4.10;3.70;;;;;;;25.36;27.20;101516.56;4928757;29;20537;-85
2022/04/30 11:41:52;;;;;;;3.67;3.38;;;;;;;24.94;27.50;101450.78;4910235;29;20178;-84
2022/04/30 11:44:23;;;;;;;;;;;;;;;25.53;27.68;101507.97;4914372;29;20054;-83
2022/04/30 11:46:52;;;;;;;5.43;3.45;;;;;;;25.47;27.79;101500.69;4913449;29;20473;-84
2022/04/30 11:49:24;;;;;;;4.43;4.00;;;;;;;25.23;28.13;101486.72;4928464;29;20083;-83
2022/04/30 11:52:11;;;;;;;4.00;3.60;;;;;;;25.50;28.34;101509.25;4914429;29;20116;-82
2022/04/30 11:54:39;;;;;;;5.32;4.18;;;;;;;25.71;28.17;101504.59;4928041;29;20058;-83
2022/04/30 11:57:09;;;;;;;6.32;4.05;;;;;;;25.74;28.59;101504.97;4930006;29;20090;-85
2022/04/30 11:59:38;;;;;;;5.30;3.67;;;;;;;25.54;28.10;101455.28;4934405;29;20509;-84
2022/04/30 12:02:08;;;;;;;4.70;3.72;;;;;;;25.64;28.38;101422.22;4933829;29;20067;-83
2022/04/30 12:04:36;;;;;;;5.07;4.22;;;;;;;25.96;27.65;101453.03;4935169;29;20324;-83